createdAt,value
2019-04-28T00:00:04.642Z,8.80
2019-04-28T00:01:05.637Z,8.80
2019-04-28T00:02:04.527Z,8.80
2019-04-28T00:03:04.638Z,8.80
2019-04-28T00:04:04.810Z,8.80
2019-04-28T00:05:04.455Z,8.80
2019-04-28T00:06:05.156Z,8.80
2019-04-28T00:07:04.916Z,8.80
2019-04-28T00:08:05.083Z,8.80
2019-04-28T00:09:04.433Z,8.80
2019-04-28T00:10:05.362Z,8.80
2019-04-28T00:11:04.779Z,8.80
2019-04-28T00:12:04.302Z,8.80
2019-04-28T00:13:04.778Z,8.80
2019-04-28T00:14:04.839Z,8.80
2019-04-28T00:15:04.611Z,8.80
2019-04-28T00:16:04.728Z,8.80
2019-04-28T00:17:04.925Z,8.80
2019-04-28T00:18:04.562Z,8.80
2019-04-28T00:19:05.106Z,8.80
2019-04-28T00:20:04.280Z,8.80
2019-04-28T00:21:04.547Z,8.80
2019-04-28T00:22:04.938Z,8.80
2019-04-28T00:23:06.952Z,8.80
2019-04-28T00:24:04.914Z,8.80
2019-04-28T00:25:04.385Z,8.80
2019-04-28T00:26:04.875Z,8.70
2019-04-28T00:27:05.165Z,8.70
2019-04-28T00:28:04.687Z,8.70
2019-04-28T00:29:04.791Z,8.70
2019-04-28T00:30:04.522Z,8.70
2019-04-28T00:31:05.052Z,8.80
2019-04-28T00:32:04.360Z,8.70
2019-04-28T00:33:04.823Z,8.70
2019-04-28T00:34:04.836Z,8.70
2019-04-28T00:35:04.287Z,8.70
2019-04-28T00:36:04.494Z,8.70
2019-04-28T00:37:04.675Z,8.70
2019-04-28T00:38:04.899Z,8.70
2019-04-28T00:39:05.009Z,8.70
2019-04-28T00:40:05.164Z,8.70
2019-04-28T00:41:04.549Z,8.70
2019-04-28T00:42:04.947Z,8.70
2019-04-28T00:43:10.872Z,8.70
2019-04-28T00:44:04.400Z,8.70
2019-04-28T00:45:04.489Z,8.70
2019-04-28T00:46:05.117Z,8.70
2019-04-28T00:47:04.873Z,8.70
2019-04-28T00:48:04.694Z,8.70
2019-04-28T00:49:04.292Z,8.70
2019-04-28T00:50:04.528Z,8.70
2019-04-28T00:51:04.575Z,8.70
2019-04-28T00:52:04.436Z,8.70
2019-04-28T00:53:04.746Z,8.70
2019-04-28T00:54:04.783Z,8.70
2019-04-28T00:55:04.199Z,8.70
2019-04-28T00:56:04.820Z,8.70
2019-04-28T00:57:04.997Z,8.70
2019-04-28T00:58:04.735Z,8.70
2019-04-28T00:59:05.257Z,8.70
2019-04-28T01:00:04.412Z,8.70
2019-04-28T01:01:04.466Z,8.70
2019-04-28T01:02:04.370Z,8.70
2019-04-28T01:03:04.705Z,8.70
2019-04-28T01:04:04.419Z,8.70
2019-04-28T01:05:04.601Z,8.70
2019-04-28T01:06:04.357Z,8.70
2019-04-28T01:07:04.608Z,8.70
2019-04-28T01:08:04.263Z,8.70
2019-04-28T01:09:04.398Z,8.70
2019-04-28T01:10:04.759Z,8.70
2019-04-28T01:11:04.911Z,8.70
2019-04-28T01:12:04.334Z,8.70
2019-04-28T01:13:05.000Z,8.70
2019-04-28T01:14:04.256Z,8.70
2019-04-28T01:15:04.948Z,8.70
2019-04-28T01:16:05.021Z,8.70
2019-04-28T01:17:04.379Z,8.70
2019-04-28T01:18:05.063Z,8.70
2019-04-28T01:19:04.405Z,8.70
2019-04-28T01:20:04.433Z,8.70
2019-04-28T01:21:04.744Z,8.70
2019-04-28T01:22:05.120Z,8.70
2019-04-28T01:23:04.855Z,8.70
2019-04-28T01:24:04.959Z,8.70
2019-04-28T01:25:04.336Z,8.70
2019-04-28T01:26:04.877Z,8.70
2019-04-28T01:27:05.166Z,8.70
2019-04-28T01:28:04.921Z,8.70
2019-04-28T01:29:05.148Z,8.70
2019-04-28T01:30:08.418Z,8.70
2019-04-28T01:31:04.652Z,8.70
2019-04-28T01:32:04.815Z,8.70
2019-04-28T01:33:04.519Z,8.70
2019-04-28T01:34:05.117Z,8.70
2019-04-28T01:35:04.391Z,8.70
2019-04-28T01:36:04.705Z,8.70
2019-04-28T01:37:04.197Z,8.70
2019-04-28T01:38:04.501Z,8.70
2019-04-28T01:39:04.237Z,8.70
2019-04-28T01:40:04.849Z,8.70
2019-04-28T01:41:05.114Z,8.70
2019-04-28T01:42:04.428Z,8.70
2019-04-28T01:43:09.767Z,8.70
2019-04-28T01:44:04.618Z,8.70
2019-04-28T01:45:04.383Z,8.70
2019-04-28T01:46:05.197Z,8.70
2019-04-28T01:47:05.035Z,8.70
2019-04-28T01:48:04.240Z,8.70
2019-04-28T01:49:04.829Z,8.70
2019-04-28T01:50:05.190Z,8.70
2019-04-28T01:51:04.419Z,8.70
2019-04-28T01:52:04.827Z,8.70
2019-04-28T01:53:04.156Z,8.70
2019-04-28T01:54:04.590Z,8.70
2019-04-28T01:55:04.938Z,8.70
2019-04-28T01:56:05.141Z,8.70
2019-04-28T01:57:04.450Z,8.70
2019-04-28T01:58:04.465Z,8.70
2019-04-28T01:59:04.608Z,8.70
2019-04-28T02:00:04.749Z,8.70
2019-04-28T02:01:04.719Z,8.70
2019-04-28T02:02:04.791Z,8.70
2019-04-28T02:03:04.524Z,8.70
2019-04-28T02:04:05.838Z,8.70
2019-04-28T02:05:05.075Z,8.70
2019-04-28T02:06:06.017Z,8.70
2019-04-28T02:07:05.025Z,8.60
2019-04-28T02:08:05.159Z,8.60
2019-04-28T02:09:04.387Z,8.70
2019-04-28T02:10:04.446Z,8.60
2019-04-28T02:11:04.508Z,8.60
2019-04-28T02:12:10.557Z,8.60
2019-04-28T02:13:05.049Z,8.60
2019-04-28T02:14:05.005Z,8.60
2019-04-28T02:15:05.138Z,8.60
2019-04-28T02:16:04.633Z,8.60
2019-04-28T02:17:05.221Z,8.60
2019-04-28T02:18:04.388Z,8.60
2019-04-28T02:19:04.358Z,8.60
2019-04-28T02:20:04.554Z,8.60
2019-04-28T02:21:04.511Z,8.60
2019-04-28T02:22:04.688Z,8.60
2019-04-28T02:23:05.201Z,8.60
2019-04-28T02:24:04.373Z,8.60
2019-04-28T02:25:05.129Z,8.60
2019-04-28T02:26:04.619Z,8.60
2019-04-28T02:27:04.980Z,8.60
2019-04-28T02:28:04.250Z,8.60
2019-04-28T02:29:04.431Z,8.60
2019-04-28T02:30:04.549Z,8.60
2019-04-28T02:31:04.664Z,8.60
2019-04-28T02:32:04.424Z,8.60
2019-04-28T02:33:05.082Z,8.60
2019-04-28T02:34:04.272Z,8.60
2019-04-28T02:35:04.652Z,8.60
2019-04-28T02:36:08.464Z,8.60
2019-04-28T02:37:04.476Z,8.60
2019-04-28T02:38:04.486Z,8.60
2019-04-28T02:39:04.874Z,8.60
2019-04-28T02:40:05.250Z,8.60
2019-04-28T02:41:04.632Z,8.60
2019-04-28T02:42:04.780Z,8.60
2019-04-28T02:43:04.836Z,8.60
2019-04-28T02:44:05.184Z,8.60
2019-04-28T02:45:04.922Z,8.60
2019-04-28T02:46:10.516Z,8.60
2019-04-28T02:47:05.088Z,8.60
2019-04-28T02:48:04.317Z,8.60
2019-04-28T02:49:04.376Z,8.60
2019-04-28T02:50:04.519Z,8.60
2019-04-28T02:51:06.457Z,8.50
2019-04-28T02:52:04.662Z,8.50
2019-04-28T02:53:04.937Z,8.60
2019-04-28T02:54:04.981Z,8.50
2019-04-28T02:55:05.218Z,8.50
2019-04-28T02:56:04.376Z,8.50
2019-04-28T02:57:04.979Z,8.50
2019-04-28T02:58:04.671Z,8.50
2019-04-28T02:59:04.516Z,8.50
2019-04-28T03:00:04.324Z,8.50
2019-04-28T03:01:12.722Z,8.50
2019-04-28T03:02:05.094Z,8.50
2019-04-28T03:03:05.311Z,8.50
2019-04-28T03:04:05.011Z,8.50
2019-04-28T03:05:05.233Z,8.50
2019-04-28T03:06:10.784Z,8.50
2019-04-28T03:07:04.464Z,8.50
2019-04-28T03:08:04.960Z,8.50
2019-04-28T03:09:04.477Z,8.50
2019-04-28T03:10:04.711Z,8.50
2019-04-28T03:11:05.152Z,8.50
2019-04-28T03:12:06.924Z,8.50
2019-04-28T03:13:04.575Z,8.50
2019-04-28T03:14:04.530Z,8.50
2019-04-28T03:15:04.871Z,8.40
2019-04-28T03:16:04.952Z,8.40
2019-04-28T03:17:04.682Z,8.40
2019-04-28T03:18:05.042Z,8.40
2019-04-28T03:19:04.419Z,8.40
2019-04-28T03:20:04.491Z,8.40
2019-04-28T03:21:04.682Z,8.40
2019-04-28T03:22:04.281Z,8.40
2019-04-28T03:23:06.827Z,8.40
2019-04-28T03:24:04.843Z,8.40
2019-04-28T03:25:05.199Z,8.40
2019-04-28T03:26:04.326Z,8.30
2019-04-28T03:27:04.479Z,8.30
2019-04-28T03:28:04.428Z,8.40
2019-04-28T03:29:04.665Z,8.30
2019-04-28T03:30:04.659Z,8.40
2019-04-28T03:31:34.233Z,8.40
2019-04-28T03:32:24.538Z,8.40
2019-04-28T03:33:10.535Z,8.40
2019-04-28T03:34:04.962Z,8.40
2019-04-28T03:35:05.055Z,8.30
2019-04-28T03:36:08.215Z,8.40
2019-04-28T03:37:05.099Z,8.30
2019-04-28T03:38:04.533Z,8.30
2019-04-28T03:39:04.745Z,8.30
2019-04-28T03:40:04.771Z,8.30
2019-04-28T03:41:04.932Z,8.30
2019-04-28T03:42:05.255Z,8.30
2019-04-28T03:43:10.343Z,8.30
2019-04-28T03:44:05.183Z,8.30
2019-04-28T03:45:04.235Z,8.30
2019-04-28T03:46:04.330Z,8.20
2019-04-28T03:47:04.570Z,8.30
2019-04-28T03:48:04.784Z,8.20
2019-04-28T03:49:04.543Z,8.20
2019-04-28T03:50:05.250Z,8.20
2019-04-28T03:51:05.062Z,8.20
2019-04-28T03:52:05.171Z,8.20
2019-04-28T03:53:04.509Z,8.20
2019-04-28T03:54:04.840Z,8.20
2019-04-28T03:55:04.945Z,8.20
2019-04-28T03:56:04.387Z,8.20
2019-04-28T03:57:04.989Z,8.20
2019-04-28T03:58:05.160Z,8.20
2019-04-28T03:59:04.378Z,8.20
2019-04-28T04:00:04.742Z,8.20
2019-04-28T04:01:04.963Z,8.20
2019-04-28T04:02:05.107Z,8.20
2019-04-28T04:03:05.044Z,8.20
2019-04-28T04:04:04.513Z,8.20
2019-04-28T04:05:04.752Z,8.20
2019-04-28T04:06:04.768Z,8.20
2019-04-28T04:07:04.228Z,8.20
2019-04-28T04:08:05.515Z,8.20
2019-04-28T04:09:05.204Z,8.20
2019-04-28T04:10:04.537Z,8.20
2019-04-28T04:11:04.663Z,8.20
2019-04-28T04:12:05.160Z,8.20
2019-04-28T04:13:04.381Z,8.20
2019-04-28T04:14:04.646Z,8.20
2019-04-28T04:15:04.405Z,8.20
2019-04-28T04:16:05.690Z,8.20
2019-04-28T04:17:04.278Z,8.20
2019-04-28T04:18:05.004Z,8.20
2019-04-28T04:19:05.481Z,8.20
2019-04-28T04:20:04.540Z,8.20
2019-04-28T04:21:04.976Z,8.20
2019-04-28T04:22:04.736Z,8.20
2019-04-28T04:23:04.775Z,8.20
2019-04-28T04:24:04.586Z,8.20
2019-04-28T04:25:08.654Z,8.30
2019-04-28T04:26:05.301Z,8.20
2019-04-28T04:27:04.487Z,8.30
2019-04-28T04:28:04.887Z,8.30
2019-04-28T04:29:05.180Z,8.30
2019-04-28T04:30:04.943Z,8.30
2019-04-28T04:31:05.294Z,8.30
2019-04-28T04:32:14.608Z,8.30
2019-04-28T04:33:05.189Z,8.30
2019-04-28T04:34:05.271Z,8.20
2019-04-28T04:35:04.373Z,8.20
2019-04-28T04:36:05.404Z,8.20
2019-04-28T04:37:05.030Z,8.20
2019-04-28T04:38:05.319Z,8.20
2019-04-28T04:39:05.259Z,8.20
2019-04-28T04:40:04.670Z,8.20
2019-04-28T04:41:05.020Z,8.20
2019-04-28T04:42:04.410Z,8.20
2019-04-28T04:43:04.669Z,8.20
2019-04-28T04:44:05.067Z,8.20
2019-04-28T04:45:04.770Z,8.20
2019-04-28T04:46:04.308Z,8.20
2019-04-28T04:47:05.392Z,8.20
2019-04-28T04:48:04.711Z,8.20
2019-04-28T04:49:05.134Z,8.20
2019-04-28T04:50:04.388Z,8.20
2019-04-28T04:51:04.615Z,8.20
2019-04-28T04:52:04.272Z,8.20
2019-04-28T04:53:04.761Z,8.20
2019-04-28T04:54:06.772Z,8.20
2019-04-28T04:55:05.121Z,8.20
2019-04-28T04:56:04.446Z,8.20
2019-04-28T04:57:04.558Z,8.20
2019-04-28T04:58:04.981Z,8.20
2019-04-28T04:59:05.360Z,8.20
2019-04-28T05:00:04.306Z,8.20
2019-04-28T05:01:04.590Z,8.20
2019-04-28T05:02:04.784Z,8.20
2019-04-28T05:03:10.623Z,8.20
2019-04-28T05:04:04.264Z,8.20
2019-04-28T05:05:04.518Z,8.20
2019-04-28T05:06:04.791Z,8.20
2019-04-28T05:07:04.928Z,8.20
2019-04-28T05:08:05.613Z,8.20
2019-04-28T05:09:04.219Z,8.20
2019-04-28T05:10:04.858Z,8.20
2019-04-28T05:11:04.586Z,8.20
2019-04-28T05:12:04.985Z,8.20
2019-04-28T05:13:04.287Z,8.20
2019-04-28T05:14:07.265Z,8.20
2019-04-28T05:15:04.870Z,8.20
2019-04-28T05:16:04.365Z,8.20
2019-04-28T05:17:04.863Z,8.20
2019-04-28T05:18:04.654Z,8.20
2019-04-28T05:19:06.328Z,8.20
2019-04-28T05:20:04.441Z,8.20
2019-04-28T05:21:04.250Z,8.30
2019-04-28T05:22:04.515Z,8.30
2019-04-28T05:23:04.988Z,8.30
2019-04-28T05:24:04.262Z,8.30
2019-04-28T05:25:05.428Z,8.30
2019-04-28T05:26:07.902Z,8.30
2019-04-28T05:27:04.847Z,8.30
2019-04-28T05:28:05.217Z,8.30
2019-04-28T05:29:05.198Z,8.30
2019-04-28T05:30:05.482Z,8.30
2019-04-28T05:31:04.333Z,8.30
2019-04-28T05:32:04.837Z,8.30
2019-04-28T05:33:04.990Z,8.30
2019-04-28T05:34:08.036Z,8.30
2019-04-28T05:35:04.833Z,8.30
2019-04-28T05:36:05.106Z,8.30
2019-04-28T05:37:05.037Z,8.30
2019-04-28T05:38:05.113Z,8.30
2019-04-28T05:39:05.209Z,8.30
2019-04-28T05:40:04.681Z,8.30
2019-04-28T05:41:04.366Z,8.30
2019-04-28T05:42:04.709Z,8.30
2019-04-28T05:43:10.680Z,8.30
2019-04-28T05:44:05.197Z,8.30
2019-04-28T05:45:05.001Z,8.30
2019-04-28T05:46:04.380Z,8.30
2019-04-28T05:47:04.497Z,8.30
2019-04-28T05:48:04.599Z,8.30
2019-04-28T05:49:04.926Z,8.30
2019-04-28T05:50:04.571Z,8.30
2019-04-28T05:51:04.205Z,8.30
2019-04-28T05:52:04.863Z,8.30
2019-04-28T05:53:04.547Z,8.30
2019-04-28T05:54:05.075Z,8.30
2019-04-28T05:55:06.294Z,8.30
2019-04-28T05:56:04.647Z,8.30
2019-04-28T05:57:04.564Z,8.30
2019-04-28T05:58:04.777Z,8.30
2019-04-28T05:59:04.449Z,8.30
2019-04-28T06:00:04.762Z,8.30
2019-04-28T06:01:05.229Z,8.30
2019-04-28T06:02:04.974Z,8.30
2019-04-28T06:03:04.616Z,8.30
2019-04-28T06:04:05.029Z,8.30
2019-04-28T06:05:05.328Z,8.30
2019-04-28T06:06:04.768Z,8.30
2019-04-28T06:07:05.220Z,8.40
2019-04-28T06:08:04.535Z,8.40
2019-04-28T06:09:04.959Z,8.40
2019-04-28T06:10:04.456Z,8.40
2019-04-28T06:11:05.281Z,8.40
2019-04-28T06:12:05.096Z,8.40
2019-04-28T06:13:05.172Z,8.40
2019-04-28T06:14:04.707Z,8.40
2019-04-28T06:15:04.753Z,8.40
2019-04-28T06:16:04.867Z,8.40
2019-04-28T06:17:04.385Z,8.40
2019-04-28T06:18:04.653Z,8.40
2019-04-28T06:19:04.749Z,8.50
2019-04-28T06:20:05.241Z,8.40
2019-04-28T06:21:05.197Z,8.40
2019-04-28T06:22:04.722Z,8.50
2019-04-28T06:23:04.969Z,8.40
2019-04-28T06:24:05.358Z,8.50
2019-04-28T06:25:04.646Z,8.50
2019-04-28T06:26:05.026Z,8.50
2019-04-28T06:27:05.174Z,8.50
2019-04-28T06:28:04.473Z,8.50
2019-04-28T06:29:04.751Z,8.50
2019-04-28T06:30:05.244Z,8.50
2019-04-28T06:31:04.877Z,8.50
2019-04-28T06:32:04.563Z,8.50
2019-04-28T06:33:07.813Z,8.50
2019-04-28T06:34:05.203Z,8.50
2019-04-28T06:35:04.878Z,8.50
2019-04-28T06:36:05.009Z,8.50
2019-04-28T06:37:04.814Z,8.50
2019-04-28T06:38:05.028Z,8.50
2019-04-28T06:39:05.104Z,8.60
2019-04-28T06:40:06.404Z,8.60
2019-04-28T06:41:05.362Z,8.60
2019-04-28T06:42:05.051Z,8.60
2019-04-28T06:43:10.050Z,8.60
2019-04-28T06:44:04.690Z,8.60
2019-04-28T06:45:04.743Z,8.60
2019-04-28T06:46:05.387Z,8.60
2019-04-28T06:47:04.285Z,8.60
2019-04-28T06:48:04.951Z,8.60
2019-04-28T06:49:05.352Z,8.60
2019-04-28T06:50:04.702Z,8.60
2019-04-28T06:51:05.104Z,8.60
2019-04-28T06:52:04.475Z,8.60
2019-04-28T06:53:04.872Z,8.60
2019-04-28T06:54:04.530Z,8.70
2019-04-28T06:55:04.828Z,8.70
2019-04-28T06:56:04.847Z,8.70
2019-04-28T06:57:04.781Z,8.70
2019-04-28T06:58:05.032Z,8.70
2019-04-28T06:59:04.566Z,8.70
2019-04-28T07:00:04.598Z,8.70
2019-04-28T07:01:04.843Z,8.70
2019-04-28T07:02:04.844Z,8.80
2019-04-28T07:03:04.926Z,8.80
2019-04-28T07:04:05.086Z,8.80
2019-04-28T07:05:05.297Z,8.80
2019-04-28T07:06:09.998Z,8.80
2019-04-28T07:07:04.460Z,8.80
2019-04-28T07:08:04.707Z,8.80
2019-04-28T07:09:04.967Z,8.80
2019-04-28T07:10:05.058Z,8.80
2019-04-28T07:11:05.241Z,8.80
2019-04-28T07:12:04.424Z,8.90
2019-04-28T07:13:04.753Z,8.90
2019-04-28T07:14:04.544Z,8.90
2019-04-28T07:15:04.316Z,8.90
2019-04-28T07:16:04.753Z,8.90
2019-04-28T07:17:04.521Z,8.90
2019-04-28T07:18:05.091Z,8.90
2019-04-28T07:19:04.467Z,9.00
2019-04-28T07:20:05.063Z,9.00
2019-04-28T07:21:04.470Z,9.00
2019-04-28T07:22:05.132Z,9.00
2019-04-28T07:23:04.572Z,9.00
2019-04-28T07:24:05.023Z,9.00
2019-04-28T07:25:05.161Z,9.00
2019-04-28T07:26:05.004Z,9.00
2019-04-28T07:27:05.238Z,9.00
2019-04-28T07:28:06.218Z,9.00
2019-04-28T07:29:04.545Z,9.00
2019-04-28T07:30:05.203Z,9.00
2019-04-28T07:31:04.342Z,9.00
2019-04-28T07:32:04.678Z,9.00
2019-04-28T07:33:04.731Z,9.00
2019-04-28T07:34:05.459Z,9.00
2019-04-28T07:35:04.374Z,9.00
2019-04-28T07:36:05.111Z,9.00
2019-04-28T07:37:04.704Z,9.00
2019-04-28T07:38:05.206Z,9.00
2019-04-28T07:39:04.968Z,9.00
2019-04-28T07:40:04.614Z,9.00
2019-04-28T07:41:05.118Z,9.00
2019-04-28T07:42:04.591Z,9.00
2019-04-28T07:43:09.655Z,9.00
2019-04-28T07:44:05.209Z,9.00
2019-04-28T07:45:04.706Z,9.00
2019-04-28T07:46:04.335Z,9.00
2019-04-28T07:47:04.363Z,9.00
2019-04-28T07:48:04.762Z,9.00
2019-04-28T07:49:05.166Z,9.00
2019-04-28T07:50:04.699Z,9.00
2019-04-28T07:51:04.295Z,9.00
2019-04-28T07:52:04.574Z,9.00
2019-04-28T07:53:04.704Z,9.00
2019-04-28T07:54:05.001Z,9.00
2019-04-28T07:55:04.262Z,9.00
2019-04-28T07:56:04.832Z,9.00
2019-04-28T07:57:05.007Z,9.10
2019-04-28T07:58:04.206Z,9.10
2019-04-28T07:59:05.677Z,9.10
2019-04-28T08:00:04.341Z,9.10
2019-04-28T08:01:04.739Z,9.10
2019-04-28T08:02:04.696Z,9.10
2019-04-28T08:03:09.807Z,9.10
2019-04-28T08:04:04.342Z,9.10
2019-04-28T08:05:04.973Z,9.10
2019-04-28T08:06:04.439Z,9.10
2019-04-28T08:07:05.199Z,9.10
2019-04-28T08:08:04.284Z,9.10
2019-04-28T08:09:04.489Z,9.10
2019-04-28T08:10:04.763Z,9.20
2019-04-28T08:11:04.583Z,9.10
2019-04-28T08:12:04.990Z,9.20
2019-04-28T08:13:05.241Z,9.20
2019-04-28T08:14:05.374Z,9.20
2019-04-28T08:15:04.271Z,9.20
2019-04-28T08:16:04.945Z,9.20
2019-04-28T08:17:04.511Z,9.20
2019-04-28T08:18:05.163Z,9.20
2019-04-28T08:19:04.844Z,9.20
2019-04-28T08:20:05.718Z,9.20
2019-04-28T08:21:04.737Z,9.20
2019-04-28T08:22:04.872Z,9.20
2019-04-28T08:23:04.540Z,9.20
2019-04-28T08:24:04.977Z,9.20
2019-04-28T08:25:05.199Z,9.20
2019-04-28T08:26:04.558Z,9.20
2019-04-28T08:27:04.328Z,9.20
2019-04-28T08:28:04.729Z,9.20
2019-04-28T08:29:05.108Z,9.20
2019-04-28T08:30:04.716Z,9.20
2019-04-28T08:31:04.928Z,9.20
2019-04-28T08:32:04.422Z,9.20
2019-04-28T08:33:05.099Z,9.20
2019-04-28T08:34:04.514Z,9.20
2019-04-28T08:35:04.675Z,9.20
2019-04-28T08:36:04.810Z,9.20
2019-04-28T08:37:04.949Z,9.20
2019-04-28T08:38:05.207Z,9.20
2019-04-28T08:39:05.094Z,9.20
2019-04-28T08:40:05.200Z,9.20
2019-04-28T08:41:04.237Z,9.20
2019-04-28T08:42:05.172Z,9.30
2019-04-28T08:43:09.621Z,9.30
2019-04-28T08:44:05.116Z,9.30
2019-04-28T08:45:05.059Z,9.30
2019-04-28T08:46:04.525Z,9.30
2019-04-28T08:47:04.646Z,9.30
2019-04-28T08:48:05.055Z,9.30
2019-04-28T08:49:04.484Z,9.40
2019-04-28T08:50:04.870Z,9.40
2019-04-28T08:51:04.695Z,9.40
2019-04-28T08:52:05.750Z,9.40
2019-04-28T08:53:04.630Z,9.40
2019-04-28T08:54:05.036Z,9.50
2019-04-28T08:55:05.123Z,9.50
2019-04-28T08:56:04.663Z,9.50
2019-04-28T08:57:04.824Z,9.60
2019-04-28T08:58:05.044Z,9.60
2019-04-28T08:59:05.000Z,9.50
2019-04-28T09:00:04.895Z,9.60
2019-04-28T09:01:04.833Z,9.60
2019-04-28T09:02:05.096Z,9.60
2019-04-28T09:03:04.418Z,9.50
2019-04-28T09:04:14.697Z,9.50
2019-04-28T09:05:04.628Z,9.50
2019-04-28T09:06:05.319Z,9.50
2019-04-28T09:07:04.267Z,9.50
2019-04-28T09:08:04.948Z,9.50
2019-04-28T09:09:04.646Z,9.50
2019-04-28T09:10:04.852Z,9.50
2019-04-28T09:11:04.411Z,9.50
2019-04-28T09:12:04.925Z,9.50
2019-04-28T09:13:04.369Z,9.50
2019-04-28T09:14:04.669Z,9.50
2019-04-28T09:15:04.951Z,9.50
2019-04-28T09:16:04.540Z,9.50
2019-04-28T09:17:04.655Z,9.50
2019-04-28T09:18:04.994Z,9.50
2019-04-28T09:19:04.525Z,9.50
2019-04-28T09:20:04.631Z,9.50
2019-04-28T09:21:04.812Z,9.50
2019-04-28T09:22:05.079Z,9.50
2019-04-28T09:23:05.120Z,9.50
2019-04-28T09:24:04.405Z,9.60
2019-04-28T09:25:04.830Z,9.50
2019-04-28T09:26:05.005Z,9.60
2019-04-28T09:27:05.226Z,9.60
2019-04-28T09:28:04.618Z,9.60
2019-04-28T09:29:04.855Z,9.60
2019-04-28T09:30:04.258Z,9.60
2019-04-28T09:31:04.547Z,9.60
2019-04-28T09:32:05.262Z,9.60
2019-04-28T09:33:04.757Z,9.60
2019-04-28T09:34:04.915Z,9.60
2019-04-28T09:35:04.731Z,9.60
2019-04-28T09:36:04.971Z,9.60
2019-04-28T09:37:04.208Z,9.70
2019-04-28T09:38:04.570Z,9.70
2019-04-28T09:39:04.891Z,9.70
2019-04-28T09:40:04.391Z,9.70
2019-04-28T09:41:04.780Z,9.70
2019-04-28T09:42:04.478Z,9.70
2019-04-28T09:43:09.891Z,9.80
2019-04-28T09:44:04.687Z,9.80
2019-04-28T09:45:04.441Z,9.80
2019-04-28T09:46:05.253Z,9.80
2019-04-28T09:47:04.665Z,9.80
2019-04-28T09:48:04.703Z,9.80
2019-04-28T09:49:04.490Z,9.80
2019-04-28T09:50:04.916Z,9.80
2019-04-28T09:51:05.134Z,9.90
2019-04-28T09:52:05.379Z,9.90
2019-04-28T09:53:05.099Z,9.90
2019-04-28T09:54:04.252Z,9.90
2019-04-28T09:55:04.992Z,9.90
2019-04-28T09:56:05.099Z,10.00
2019-04-28T09:57:04.507Z,10.00
2019-04-28T09:58:05.020Z,10.00
2019-04-28T09:59:05.192Z,10.00
2019-04-28T10:00:04.868Z,10.10
2019-04-28T10:01:05.199Z,10.10
2019-04-28T10:02:05.223Z,10.10
2019-04-28T10:03:05.332Z,10.20
2019-04-28T10:04:05.314Z,10.20
2019-04-28T10:05:04.456Z,10.20
2019-04-28T10:06:04.791Z,10.20
2019-04-28T10:07:05.114Z,10.30
2019-04-28T10:08:04.440Z,10.30
2019-04-28T10:09:04.547Z,10.30
2019-04-28T10:10:04.411Z,10.40
2019-04-28T10:11:04.418Z,10.40
2019-04-28T10:12:04.549Z,10.40
2019-04-28T10:13:05.091Z,10.50
2019-04-28T10:14:04.244Z,10.50
2019-04-28T10:15:04.484Z,10.50
2019-04-28T10:16:04.554Z,10.60
2019-04-28T10:17:04.642Z,10.60
2019-04-28T10:18:04.815Z,10.70
2019-04-28T10:19:05.150Z,10.70
2019-04-28T10:20:04.461Z,10.80
2019-04-28T10:21:05.215Z,10.80
2019-04-28T10:22:04.607Z,10.90
2019-04-28T10:23:04.981Z,11.00
2019-04-28T10:24:05.155Z,11.00
2019-04-28T10:25:04.733Z,11.10
2019-04-28T10:26:04.748Z,11.20
2019-04-28T10:27:05.222Z,11.20
2019-04-28T10:28:04.787Z,11.30
2019-04-28T10:29:05.038Z,11.40
2019-04-28T10:30:04.264Z,11.40
2019-04-28T10:31:04.745Z,11.50
2019-04-28T10:32:05.028Z,11.50
2019-04-28T10:33:05.137Z,11.60
2019-04-28T10:34:05.081Z,11.70
2019-04-28T10:35:04.487Z,11.80
2019-04-28T10:36:04.794Z,11.80
2019-04-28T10:37:05.276Z,11.90
2019-04-28T10:38:04.523Z,11.90
2019-04-28T10:39:04.785Z,12.00
2019-04-28T10:40:04.778Z,12.10
2019-04-28T10:41:05.239Z,12.20
2019-04-28T10:42:05.227Z,12.20
2019-04-28T10:43:04.595Z,12.30
2019-04-28T10:44:05.114Z,12.40
2019-04-28T10:45:04.386Z,12.40
2019-04-28T10:46:05.208Z,12.50
2019-04-28T10:47:04.290Z,12.50
2019-04-28T10:48:05.808Z,12.60
2019-04-28T10:49:04.310Z,12.60
2019-04-28T10:50:04.803Z,12.70
2019-04-28T10:51:04.862Z,12.70
2019-04-28T10:52:05.310Z,12.70
2019-04-28T10:53:04.766Z,12.80
2019-04-28T10:54:04.309Z,12.80
2019-04-28T10:55:05.043Z,12.90
2019-04-28T10:56:05.120Z,12.90
2019-04-28T10:57:05.055Z,12.90
2019-04-28T10:58:04.241Z,13.00
2019-04-28T10:59:06.140Z,13.10
2019-04-28T11:00:04.749Z,13.10
2019-04-28T11:01:09.355Z,13.20
2019-04-28T11:02:05.005Z,13.20
2019-04-28T11:03:04.335Z,13.30
2019-04-28T11:04:04.845Z,13.30
2019-04-28T11:05:08.327Z,13.40
2019-04-28T11:06:04.980Z,13.40
2019-04-28T11:07:04.461Z,13.50
2019-04-28T11:08:05.450Z,13.50
2019-04-28T11:09:04.358Z,13.50
2019-04-28T11:10:05.082Z,13.50
2019-04-28T11:11:04.700Z,13.60
2019-04-28T11:12:04.919Z,13.60
2019-04-28T11:13:04.578Z,13.60
2019-04-28T11:14:04.701Z,13.60
2019-04-28T11:15:05.155Z,13.70
2019-04-28T11:16:04.307Z,13.70
2019-04-28T11:17:04.879Z,13.80
2019-04-28T11:18:05.366Z,13.80
2019-04-28T11:19:04.892Z,13.90
2019-04-28T11:20:04.901Z,13.90
2019-04-28T11:21:10.367Z,14.00
2019-04-28T11:22:04.871Z,14.00
2019-04-28T11:23:05.031Z,14.00
2019-04-28T11:24:04.378Z,14.10
2019-04-28T11:25:04.719Z,14.20
2019-04-28T11:26:05.000Z,14.20
2019-04-28T11:27:04.707Z,14.30
2019-04-28T11:28:04.997Z,14.30
2019-04-28T11:29:05.117Z,14.40
2019-04-28T11:30:04.524Z,14.40
2019-04-28T11:31:04.829Z,14.50
2019-04-28T11:32:04.972Z,14.50
2019-04-28T11:33:05.237Z,14.50
2019-04-28T11:34:04.511Z,14.50
2019-04-28T11:35:06.494Z,14.50
2019-04-28T11:36:04.652Z,14.50
2019-04-28T11:37:05.276Z,14.50
2019-04-28T11:38:04.365Z,14.50
2019-04-28T11:39:04.854Z,14.50
2019-04-28T11:40:05.043Z,14.60
2019-04-28T11:41:04.448Z,14.60
2019-04-28T11:42:04.590Z,14.60
2019-04-28T11:43:10.375Z,14.50
2019-04-28T11:44:04.936Z,14.50
2019-04-28T11:45:05.180Z,14.50
2019-04-28T11:46:04.988Z,14.50
2019-04-28T11:47:04.465Z,14.40
2019-04-28T11:48:04.957Z,14.30
2019-04-28T11:49:04.430Z,14.30
2019-04-28T11:50:04.973Z,14.20
2019-04-28T11:51:04.549Z,14.10
2019-04-28T11:52:05.080Z,14.10
2019-04-28T11:53:04.982Z,14.00
2019-04-28T11:54:04.646Z,13.90
2019-04-28T11:55:05.009Z,13.80
2019-04-28T11:56:04.876Z,13.70
2019-04-28T11:57:04.660Z,13.60
2019-04-28T11:58:05.083Z,13.60
2019-04-28T11:59:04.572Z,13.50
2019-04-28T12:00:04.899Z,13.40
2019-04-28T12:01:05.079Z,13.30
2019-04-28T12:02:04.551Z,13.30
2019-04-28T12:03:04.882Z,13.20
2019-04-28T12:04:05.296Z,13.10
2019-04-28T12:05:04.718Z,13.00
2019-04-28T12:06:07.482Z,12.90
2019-04-28T12:07:05.141Z,12.80
2019-04-28T12:08:04.343Z,12.80
2019-04-28T12:09:04.942Z,12.70
2019-04-28T12:10:05.513Z,12.70
2019-04-28T12:11:04.581Z,12.60
2019-04-28T12:12:04.426Z,12.60
2019-04-28T12:13:04.935Z,12.60
2019-04-28T12:14:05.085Z,12.50
2019-04-28T12:15:04.561Z,12.50
2019-04-28T12:16:04.596Z,12.50
2019-04-28T12:17:04.687Z,12.40
2019-04-28T12:18:05.222Z,12.40
2019-04-28T12:19:04.842Z,12.40
2019-04-28T12:20:04.382Z,12.40
2019-04-28T12:21:04.429Z,12.40
2019-04-28T12:22:06.024Z,12.40
2019-04-28T12:23:04.303Z,12.30
2019-04-28T12:24:04.674Z,12.30
2019-04-28T12:25:04.749Z,12.30
2019-04-28T12:26:05.210Z,12.30
2019-04-28T12:27:04.457Z,12.30
2019-04-28T12:28:04.830Z,12.30
2019-04-28T12:29:04.830Z,12.30
2019-04-28T12:30:04.912Z,12.30
2019-04-28T12:31:04.359Z,12.30
2019-04-28T12:32:04.477Z,12.20
2019-04-28T12:33:04.947Z,12.20
2019-04-28T12:34:04.709Z,12.20
2019-04-28T12:35:04.454Z,12.10
2019-04-28T12:36:04.695Z,12.10
2019-04-28T12:37:05.300Z,12.10
2019-04-28T12:38:07.048Z,12.10
2019-04-28T12:39:05.224Z,12.00
2019-04-28T12:40:04.354Z,12.00
2019-04-28T12:41:04.448Z,12.00
2019-04-28T12:42:05.006Z,12.00
2019-04-28T12:43:09.959Z,11.90
2019-04-28T12:44:04.647Z,11.80
2019-04-28T12:45:04.752Z,11.80
2019-04-28T12:46:05.202Z,11.80
2019-04-28T12:47:05.056Z,11.70
2019-04-28T12:48:05.133Z,11.70
2019-04-28T12:49:04.954Z,11.60
2019-04-28T12:50:05.183Z,11.60
2019-04-28T12:51:05.095Z,11.60
2019-04-28T12:52:04.847Z,11.60
2019-04-28T12:53:04.535Z,11.50
2019-04-28T12:54:05.126Z,11.50
2019-04-28T12:55:04.950Z,11.50
2019-04-28T12:56:05.135Z,11.50
2019-04-28T12:57:04.733Z,11.50
2019-04-28T12:58:04.603Z,11.50
2019-04-28T12:59:05.198Z,11.50
2019-04-28T13:00:04.222Z,11.50
2019-04-28T13:01:04.612Z,11.50
2019-04-28T13:02:04.798Z,11.50
2019-04-28T13:03:04.418Z,11.40
2019-04-28T13:04:04.536Z,11.40
2019-04-28T13:05:04.740Z,11.40
2019-04-28T13:06:05.865Z,11.30
2019-04-28T13:07:05.146Z,11.30
2019-04-28T13:08:05.209Z,11.30
2019-04-28T13:09:05.422Z,11.20
2019-04-28T13:10:05.293Z,11.20
2019-04-28T13:11:04.683Z,11.20